Time;durP1;ratioP1;P1;durP2;ratioP2;P2;SDS_P1;SDS_P2;PMS_P1;PMS_P2;Temp;Humidity;BMP_temperature;BMP_pressure;BME280_temperature;BME280_humidity;BME280_pressure;Samples;Min_cycle;Max_cycle;Signal;HPM_P1;HPM_P2
2022/06/17 00:00:26;;;;;;;2.15;1.90;;;;;;;19.97;66.26;101360.13;4986052;28;103496;-61
2022/06/17 00:02:55;;;;;;;2.35;1.98;;;;;;;19.97;66.27;101371.19;4999702;28;103950;-60
2022/06/17 00:05:21;;;;;;;2.42;2.22;;;;;;;19.96;66.13;101370.38;4997718;28;102319;-60
2022/06/17 00:07:48;;;;;;;2.13;1.92;;;;;;;19.96;66.19;101364.84;4986139;28;102353;-61
2022/06/17 00:10:21;;;;;;;2.40;2.20;;;;;;;19.95;66.14;101356.88;4994863;28;102622;-60
2022/06/17 00:12:50;;;;;;;2.47;1.90;;;;;;;19.95;66.09;101351.34;4997093;28;103878;-61
2022/06/17 00:15:17;;;;;;;2.65;1.88;;;;;;;19.96;65.92;101352.97;4997689;28;102133;-60
2022/06/17 00:17:55;;;;;;;2.20;1.85;;;;;;;19.96;66.09;101359.31;4999545;28;102352;-61
2022/06/17 00:20:24;;;;;;;2.20;1.88;;;;;;;19.95;66.03;101356.88;4979665;28;102143;-60
2022/06/17 00:22:50;;;;;;;2.30;2.10;;;;;;;19.96;66.02;101347.44;4991545;28;104189;-60
2022/06/17 00:25:24;;;;;;;2.58;2.00;;;;;;;19.96;66.03;101350.22;4999926;28;102260;-60
2022/06/17 00:27:52;;;;;;;2.10;1.90;;;;;;;19.93;66.12;101349.72;4999063;28;102071;-60
2022/06/17 00:30:22;;;;;;;2.38;2.17;;;;;;;19.94;66.09;101350.53;4999829;28;102168;-60
2022/06/17 00:32:53;;;;;;;2.30;2.10;;;;;;;19.96;66.11;101347.44;4995534;28;104022;-60
2022/06/17 00:35:22;;;;;;;2.95;2.00;;;;;;;19.93;66.28;101346.13;4998432;28;102261;-60
2022/06/17 00:37:49;;;;;;;2.00;1.90;;;;;;;19.93;66.31;101343.38;4989590;28;101979;-60
2022/06/17 00:40:20;;;;;;;3.42;1.95;;;;;;;19.93;66.29;101344.19;4980624;28;102462;-60
2022/06/17 00:42:48;;;;;;;2.92;2.30;;;;;;;19.93;66.23;101344.19;4979406;28;103919;-60
2022/06/17 00:45:26;;;;;;;2.33;2.10;;;;;;;19.93;66.10;101338.66;4996394;28;102486;-62
2022/06/17 00:47:57;;;;;;;;;;;;;;;19.93;65.97;101344.19;4996406;28;102023;-60
2022/06/17 00:50:30;;;;;;;2.97;2.13;;;;;;;19.93;66.02;101344.19;4990590;28;102237;-61
2022/06/17 00:53:06;;;;;;;3.35;2.25;;;;;;;19.93;66.26;101333.13;4995506;28;104591;-60
2022/06/17 00:55:37;;;;;;;3.30;2.20;;;;;;;19.93;66.12;101338.66;4992527;28;102242;-60
2022/06/17 00:58:13;;;;;;;3.58;2.40;;;;;;;19.93;66.19;101333.13;4997187;28;102238;-60
2022/06/17 01:00:41;;;;;;;4.30;2.22;;;;;;;19.92;66.06;101337.03;5002021;28;102187;-60
2022/06/17 01:03:16;;;;;;;3.33;2.20;;;;;;;19.92;66.24;101336.22;4995474;28;104022;-60
2022/06/17 01:05:49;;;;;;;2.40;2.20;;;;;;;19.92;66.07;101326.00;4993805;28;102198;-60
2022/06/17 01:09:57;;;;;;;2.15;2.00;;;;;;;19.92;66.03;101337.03;4997855;28;102024;-60
2022/06/17 01:11:13;;;;;;;3.75;2.13;;;;;;;19.92;66.24;101342.56;4983401;28;102197;-61
2022/06/17 01:13:40;;;;;;;2.55;2.28;;;;;;;19.92;66.00;101334.28;4982642;28;103934;-60
2022/06/17 01:16:08;;;;;;;2.72;2.35;;;;;;;19.91;66.26;101332.66;4992076;28;102433;-60
2022/06/17 01:18:43;;;;;;;2.40;1.98;;;;;;;19.91;66.40;101329.91;5004990;28;102558;-60
2022/06/17 01:21:19;;;;;;;3.53;2.28;;;;;;;19.92;66.04;101330.69;4985403;28;102042;-60
2022/06/17 01:23:48;;;;;;;3.30;2.05;;;;;;;19.91;66.09;101327.13;4987282;28;104104;-60
2022/06/17 01:26:17;;;;;;;4.45;1.85;;;;;;;19.92;66.42;101325.19;4991848;28;102129;-61
2022/06/17 01:28:46;;;;;;;2.58;2.10;;;;;;;19.91;66.15;101321.59;4996866;28;102642;-60
2022/06/17 01:31:13;;;;;;;2.20;2.00;;;;;;;19.91;66.24;101324.38;4996541;28;102643;-60
2022/06/17 01:33:43;;;;;;;2.50;2.30;;;;;;;19.90;66.07;101317.19;4983078;28;104045;-59
2022/06/17 01:36:15;;;;;;;2.65;2.20;;;;;;;19.90;66.39;101317.19;4978137;28;102198;-60
2022/06/17 01:38:48;;;;;;;2.63;2.05;;;;;;;19.90;66.28;101306.16;4990623;28;103602;-60
2022/06/17 01:41:17;;;;;;;2.40;2.20;;;;;;;19.89;66.24;101304.53;4998268;28;102499;-60
2022/06/17 01:43:47;;;;;;;2.95;2.00;;;;;;;19.89;66.45;101299.00;4996260;28;103843;-60
2022/06/17 01:46:18;;;;;;;2.83;2.45;;;;;;;19.91;66.46;101301.47;4985257;28;102069;-60
2022/06/17 01:48:52;;;;;;;2.65;2.00;;;;;;;19.89;66.37;101293.47;4976764;28;102314;-60
2022/06/17 01:51:22;;;;;;;2.28;1.83;;;;;;;19.90;66.48;101294.28;4985732;28;102324;-60
2022/06/17 01:53:54;;;;;;;2.85;1.80;;;;;;;19.90;66.46;101295.09;4991483;28;104275;-60
2022/06/17 01:56:24;;;;;;;2.30;2.10;;;;;;;19.89;66.28;101287.94;4997051;28;102331;-60
2022/06/17 01:58:56;;;;;;;2.40;2.20;;;;;;;19.90;66.19;101288.75;4996068;28;102122;-60
2022/06/17 02:01:27;;;;;;;2.40;2.20;;;;;;;19.90;66.11;101292.34;4997737;28;101960;-60
2022/06/17 02:03:57;;;;;;;2.83;2.10;;;;;;;19.90;66.66;101297.84;4991458;28;103909;-60
2022/06/17 02:06:40;;;;;;;2.53;2.03;;;;;;;19.90;66.24;101292.34;4996707;28;102252;-60
2022/06/17 02:09:08;;;;;;;2.22;2.10;;;;;;;19.89;66.19;101299.00;4995652;28;102133;-60
2022/06/17 02:11:36;;;;;;;2.10;1.88;;;;;;;19.90;66.31;101294.28;4996677;28;102437;-60
2022/06/17 02:14:06;;;;;;;1.80;1.70;;;;;;;19.89;66.01;101287.94;4994729;28;103863;-60
2022/06/17 02:16:36;;;;;;;2.55;2.10;;;;;;;19.90;66.25;101288.75;4996897;28;102329;-61
2022/06/17 02:19:03;;;;;;;1.98;1.85;;;;;;;19.89;66.22;101293.47;4996023;28;102299;-60
2022/06/17 02:21:41;;;;;;;2.10;1.90;;;;;;;19.89;66.35;101287.94;4997708;28;102213;-60
2022/06/17 02:24:10;;;;;;;2.35;2.15;;;;;;;19.89;66.00;101290.72;4995448;28;103984;-60
2022/06/17 02:26:41;;;;;;;2.47;1.98;;;;;;;19.89;66.25;101293.47;4995794;28;102380;-61
2022/06/17 02:29:11;;;;;;;2.30;2.10;;;;;;;19.88;66.44;101294.63;4995728;28;101900;-61
2022/06/17 02:31:41;;;;;;;2.67;1.90;;;;;;;19.89;66.25;101296.25;4993355;28;102639;-61
2022/06/17 02:34:10;;;;;;;2.50;2.25;;;;;;;19.88;66.39;101291.84;4981394;28;103907;-61
2022/06/17 02:36:48;;;;;;;3.30;2.00;;;;;;;19.88;66.25;101291.84;4985941;28;101976;-61
2022/06/17 02:39:16;;;;;;;2.95;2.00;;;;;;;19.89;66.31;101298.19;4991704;28;102375;-61
2022/06/17 02:41:45;;;;;;;2.60;2.20;;;;;;;19.89;66.11;101299.00;4995568;28;102197;-61
2022/06/17 02:44:19;;;;;;;3.05;2.20;;;;;;;19.89;66.29;101301.75;4995188;28;103607;-61
2022/06/17 02:46:48;;;;;;;1.95;1.77;;;;;;;19.88;66.24;101302.91;4995513;28;102003;-61
2022/06/17 02:49:16;;;;;;;;;;;;;;;19.89;66.31;101292.66;4993784;28;102333;-61
2022/06/17 02:51:44;;;;;;;;;;;;;;;19.88;65.98;101299.34;4985246;28;102589;-61
2022/06/17 02:54:15;;;;;;;2.13;1.92;;;;;;;19.88;65.77;101302.91;4975591;28;104086;-61
2022/06/17 02:56:47;;;;;;;1.95;1.85;;;;;;;19.88;66.01;101297.38;4988083;28;102416;-61
2022/06/17 02:59:21;;;;;;;2.38;1.90;;;;;;;19.89;66.31;101293.47;4983518;28;102277;-61
2022/06/17 03:01:51;;;;;;;2.10;1.90;;;;;;;19.88;66.16;101302.09;4991937;28;102119;-62
2022/06/17 03:04:19;;;;;;;3.80;1.92;;;;;;;19.89;66.06;101292.66;4980783;28;103803;-61
2022/06/17 03:06:49;;;;;;;1.85;1.70;;;;;;;19.88;66.00;101291.84;4976167;28;102206;-61
2022/06/17 03:09:20;;;;;;;2.60;2.05;;;;;;;19.89;65.96;101290.72;4993059;28;102187;-61
2022/06/17 03:11:53;;;;;;;2.30;2.08;;;;;;;19.89;66.12;101287.16;4985646;28;102502;-62
2022/06/17 03:14:22;;;;;;;4.18;1.90;;;;;;;19.89;66.43;101287.94;4987436;28;104136;-61
2022/06/17 03:16:53;;;;;;;2.47;2.28;;;;;;;19.89;66.82;101285.19;4984503;28;102955;-61
2022/06/17 03:19:21;;;;;;;;;;;;;;;19.89;66.67;101287.94;4991627;28;102432;-61
2022/06/17 03:21:48;;;;;;;2.33;2.13;;;;;;;19.90;66.75;101286.81;4982756;28;102545;-61
2022/06/17 03:24:20;;;;;;;2.92;1.77;;;;;;;19.90;67.09;101284.03;4975214;28;104195;-62
2022/06/17 03:26:54;;;;;;;2.03;1.88;;;;;;;19.91;67.16;101288.47;4988337;28;102476;-62
2022/06/17 03:29:23;;;;;;;2.40;2.20;;;;;;;19.91;66.89;101285.69;4986680;28;102420;-62
2022/06/17 03:31:56;;;;;;;2.15;2.00;;;;;;;19.92;67.33;101292.84;4983747;28;102168;-62
2022/06/17 03:34:30;;;;;;;2.78;1.70;;;;;;;19.92;67.21;101292.84;4981435;28;103972;-61
2022/06/17 03:37:03;;;;;;;2.97;2.17;;;;;;;19.92;67.74;101286.50;4984916;28;102015;-61
2022/06/17 03:39:35;;;;;;;2.53;1.70;;;;;;;19.93;67.42;101285.34;4990260;28;102209;-61
2022/06/17 03:42:10;;;;;;;4.38;2.28;;;;;;;19.93;67.40;101288.94;4998829;28;102029;-61
2022/06/17 03:44:43;;;;;;;2.63;2.42;;;;;;;19.93;67.54;101291.69;4997742;28;103964;-60
2022/06/17 03:47:14;;;;;;;2.35;2.15;;;;;;;19.96;67.61;101292.19;4980187;28;102482;-61
2022/06/17 03:49:44;;;;;;;2.92;2.63;;;;;;;19.94;67.11;101286.97;4980971;28;102390;-61
2022/06/17 03:52:19;;;;;;;2.63;2.30;;;;;;;19.93;67.56;101288.94;4980307;28;102121;-62
2022/06/17 03:54:48;;;;;;;2.22;2.03;;;;;;;19.96;67.55;101275.63;4978042;28;103899;-61
2022/06/17 03:57:16;;;;;;;2.35;2.15;;;;;;;19.95;67.84;101279.53;4978898;28;102118;-61
2022/06/17 03:59:46;;;;;;;2.33;2.13;;;;;;;19.96;67.62;101286.69;4995679;28;101951;-61
2022/06/17 04:02:16;;;;;;;2.30;2.10;;;;;;;19.94;67.75;101278.69;4999433;28;102233;-61
2022/06/17 04:04:49;;;;;;;2.10;1.75;;;;;;;19.93;67.66;101272.34;4997566;28;105075;-61
2022/06/17 04:07:16;;;;;;;4.38;1.85;;;;;;;19.97;67.73;101280.81;4999238;28;102095;-61
2022/06/17 04:09:45;;;;;;;2.20;1.73;;;;;;;19.97;67.76;101282.78;4996630;28;102036;-61
2022/06/17 04:12:26;;;;;;;2.70;2.15;;;;;;;19.97;67.93;101280.00;4991265;28;102180;-61
2022/06/17 04:14:59;;;;;;;1.90;1.80;;;;;;;19.98;67.94;101284.38;4977299;28;103951;-61
2022/06/17 04:17:30;;;;;;;2.33;2.10;;;;;;;19.98;67.78;101273.34;4994083;28;103150;-61
2022/06/17 04:20:19;;;;;;;2.17;1.98;;;;;;;19.99;67.90;101267.50;4995785;28;102366;-61
2022/06/17 04:22:49;;;;;;;2.10;1.90;;;;;;;19.99;68.03;101273.03;4999615;28;102133;-62
2022/06/17 04:25:28;;;;;;;3.63;2.15;;;;;;;20.00;67.91;101271.09;4997336;28;103522;-62
2022/06/17 04:28:02;;;;;;;2.13;1.98;;;;;;;20.01;67.81;101269.94;4991682;28;102156;-61
2022/06/17 04:30:33;;;;;;;2.28;2.08;;;;;;;20.00;68.10;101266.38;4997437;28;102559;-61
2022/06/17 04:33:04;;;;;;;3.45;2.30;;;;;;;20.03;67.95;101270.44;4999144;28;102181;-61
2022/06/17 04:35:31;;;;;;;2.38;2.05;;;;;;;20.03;67.81;101257.44;4997404;28;104768;-61
2022/06/17 04:37:57;;;;;;;2.55;2.10;;;;;;;20.02;67.85;101257.78;4993721;28;102309;-61
2022/06/17 04:40:34;;;;;;;4.00;2.22;;;;;;;20.04;67.85;101261.00;4987510;28;103121;-62
2022/06/17 04:43:06;;;;;;;2.60;1.85;;;;;;;20.05;68.15;101260.72;4996068;28;102354;-61
2022/06/17 04:45:32;;;;;;;2.22;1.90;;;;;;;20.05;67.86;101257.94;4996299;28;103728;-61
2022/06/17 04:47:59;;;;;;;2.72;2.10;;;;;;;20.07;67.97;101271.44;4996882;28;102201;-61
2022/06/17 04:50:28;;;;;;;2.30;2.03;;;;;;;20.07;68.14;101266.72;4994776;28;102264;-61
2022/06/17 04:52:55;;;;;;;;;;;;;;;20.08;67.85;101262.00;4998137;28;102322;-61
2022/06/17 04:55:26;;;;;;;3.17;2.30;;;;;;;20.08;68.09;101267.50;4996941;28;103816;-62
2022/06/17 04:57:55;;;;;;;2.63;2.25;;;;;;;20.08;67.89;101264.75;4999577;28;102010;-61
2022/06/17 05:00:25;;;;;;;2.80;2.25;;;;;;;20.09;68.07;101264.44;5001960;28;101912;-61
2022/06/17 05:02:52;;;;;;;2.30;2.13;;;;;;;20.11;67.86;101261.34;4999625;28;102156;-61
2022/06/17 05:05:27;;;;;;;5.57;3.20;;;;;;;20.12;68.01;101251.91;4995485;28;107575;-59
2022/06/17 05:07:56;;;;;;;3.42;2.40;;;;;;;20.12;67.88;101257.44;4998348;28;102114;-61
2022/06/17 05:10:28;;;;;;;4.53;2.17;;;;;;;20.13;68.01;101251.63;4996096;28;103332;-61
2022/06/17 05:13:00;;;;;;;2.53;2.35;;;;;;;20.15;67.98;101245.75;4996875;28;102155;-61
2022/06/17 05:15:29;;;;;;;2.50;2.30;;;;;;;20.17;67.85;101249.00;4994321;28;103943;-61
2022/06/17 05:17:56;;;;;;;2.35;2.10;;;;;;;20.19;67.75;101256.97;4995730;28;102168;-61
2022/06/17 05:20:25;;;;;;;2.67;2.47;;;;;;;20.19;67.78;101243.16;4996780;28;102248;-61
2022/06/17 05:22:55;;;;;;;2.75;2.38;;;;;;;20.20;68.29;101245.59;4998414;28;101894;-61
2022/06/17 05:25:25;;;;;;;2.78;2.30;;;;;;;20.23;67.88;101244.97;4995085;28;104000;-61
2022/06/17 05:27:52;;;;;;;3.38;2.25;;;;;;;20.24;67.63;101240.25;4997409;28;101999;-61
2022/06/17 05:30:19;;;;;;;2.63;2.28;;;;;;;20.26;67.48;101241.53;4994803;28;102352;-61
2022/06/17 05:32:50;;;;;;;2.47;2.20;;;;;;;20.29;67.28;101240.06;4987770;28;102631;-62
2022/06/17 05:35:18;;;;;;;2.55;2.35;;;;;;;20.30;67.41;101239.78;4995093;28;103870;-61
2022/06/17 05:37:45;;;;;;;2.60;2.20;;;;;;;20.32;67.27;101234.72;4997607;28;101868;-61
2022/06/17 05:40:12;;;;;;;2.67;2.20;;;;;;;20.34;67.00;101234.38;4993886;28;102369;-61
2022/06/17 05:42:41;;;;;;;;;;;;;;;20.35;67.21;101239.59;4988196;28;102288;-61
2022/06/17 05:45:10;;;;;;;4.40;2.00;;;;;;;20.37;67.07;101242.03;4977628;28;104263;-61
2022/06/17 05:47:38;;;;;;;2.60;2.40;;;;;;;20.37;66.84;101229.00;4978353;28;103244;-61
2022/06/17 05:50:08;;;;;;;2.78;2.05;;;;;;;20.39;67.20;101235.03;4993791;28;102153;-61
2022/06/17 05:52:47;;;;;;;2.38;2.17;;;;;;;20.41;66.90;101229.16;4994111;28;102267;-62
2022/06/17 05:55:13;;;;;;;2.28;2.00;;;;;;;20.43;66.80;101229.66;4995787;28;103928;-62
2022/06/17 05:57:41;;;;;;;3.08;2.13;;;;;;;20.44;66.89;101233.25;4996254;28;102396;-62
2022/06/17 06:00:09;;;;;;;3.45;2.10;;;;;;;20.45;66.85;101238.47;4992388;28;102168;-61
2022/06/17 06:02:35;;;;;;;3.35;2.30;;;;;;;20.49;66.92;101235.88;4995431;28;102279;-61
2022/06/17 06:05:03;;;;;;;2.53;2.00;;;;;;;20.49;66.69;101233.09;4992458;28;103835;-62
2022/06/17 06:07:33;;;;;;;2.65;2.42;;;;;;;20.50;66.61;101229.22;4991223;28;102116;-61
2022/06/17 06:10:00;;;;;;;2.28;1.83;;;;;;;20.50;66.52;101227.25;4993317;28;103489;-61
2022/06/17 06:12:53;;;;;;;2.30;2.10;;;;;;;20.52;66.40;101221.41;4992146;28;102176;-62
2022/06/17 06:15:13;;;;;;;2.20;2.00;;;;;;;20.50;66.73;101229.22;4988734;28;103962;-61
2022/06/17 06:17:44;;;;;;;3.45;1.90;;;;;;;20.51;66.64;101220.59;4989042;28;102437;-61
2022/06/17 06:20:12;;;;;;;2.28;1.98;;;;;;;20.54;66.51;101208.06;4993381;28;102406;-62
2022/06/17 06:22:40;;;;;;;4.65;1.92;;;;;;;20.54;66.51;101208.06;4997324;28;102141;-62
2022/06/17 06:25:09;;;;;;;1.85;1.75;;;;;;;20.54;66.34;101203.34;4995101;28;106997;-61
2022/06/17 06:27:35;;;;;;;2.78;2.10;;;;;;;20.56;66.53;101201.09;4994123;28;102229;-60
2022/06/17 06:30:02;;;;;;;2.13;1.85;;;;;;;20.56;66.55;101200.28;4994339;28;102196;-62
2022/06/17 06:32:29;;;;;;;3.40;2.20;;;;;;;20.55;66.80;101193.91;4993686;28;102130;-61
2022/06/17 06:34:55;;;;;;;6.85;2.42;;;;;;;20.58;66.41;101197.97;4987210;28;103864;-61
2022/06/17 06:37:22;;;;;;;9.18;2.53;;;;;;;20.57;66.52;101196.34;4989065;28;102204;-61
2022/06/17 06:39:50;;;;;;;69.90;3.58;;;;;;;20.57;66.24;101188.06;4989349;28;102259;-61
2022/06/17 06:42:19;;;;;;;4.43;2.17;;;;;;;20.58;66.42;101192.44;4987604;28;102170;-61
2022/06/17 06:44:46;;;;;;;2.13;1.90;;;;;;;20.59;66.35;101199.59;4992561;28;104191;-61
2022/06/17 06:47:13;;;;;;;2.35;2.03;;;;;;;20.59;66.27;101191.28;4994714;28;102448;-61
2022/06/17 06:49:40;;;;;;;4.10;2.17;;;;;;;20.58;66.24;101193.25;4995490;28;102195;-62
2022/06/17 06:52:07;;;;;;;2.20;2.00;;;;;;;20.57;66.39;101182.53;4996627;28;102126;-61
2022/06/17 06:54:34;;;;;;;4.50;2.05;;;;;;;20.59;66.71;101188.53;4995127;28;102930;-61
2022/06/17 06:57:02;;;;;;;1.92;1.80;;;;;;;20.59;66.28;101183.00;4993742;28;102293;-61
2022/06/17 06:59:29;;;;;;;2.42;2.08;;;;;;;20.59;66.19;101188.53;4992955;28;102263;-62
2022/06/17 07:01:56;;;;;;;5.30;2.17;;;;;;;20.57;66.31;101188.88;4991053;28;102456;-61
2022/06/17 07:04:23;;;;;;;4.07;2.15;;;;;;;20.58;66.53;101186.91;4989811;28;104041;-61
2022/06/17 07:06:49;;;;;;;3.72;2.10;;;;;;;20.57;66.39;101188.06;4990284;28;102541;-61
2022/06/17 07:09:16;;;;;;;2.45;1.90;;;;;;;20.57;66.33;101182.53;4990646;28;102717;-61
2022/06/17 07:11:46;;;;;;;3.42;1.95;;;;;;;20.57;66.53;101191.63;4992923;28;103058;-62
2022/06/17 07:14:15;;;;;;;2.15;1.80;;;;;;;20.58;66.30;101186.91;4979861;28;103953;-61
2022/06/17 07:16:41;;;;;;;14.05;2.20;;;;;;;20.59;66.16;101183.00;4992291;28;102361;-62
2022/06/17 07:19:10;;;;;;;4.32;2.10;;;;;;;20.62;66.45;101187.88;4994875;28;102041;-62
2022/06/17 07:21:36;;;;;;;2.85;1.88;;;;;;;20.63;66.34;101184.81;4998309;28;102224;-61
2022/06/17 07:24:03;;;;;;;2.10;1.92;;;;;;;20.64;66.19;101180.88;4994656;28;103845;-61
2022/06/17 07:26:30;;;;;;;2.05;1.90;;;;;;;20.66;66.15;101186.09;4991943;28;102540;-61
2022/06/17 07:28:56;;;;;;;2.10;2.00;;;;;;;20.64;66.00;101177.31;4993620;28;102406;-61
2022/06/17 07:31:25;;;;;;;2.50;1.98;;;;;;;20.62;66.06;101176.81;4988688;28;102216;-61
2022/06/17 07:33:53;;;;;;;2.50;2.30;;;;;;;20.63;66.31;101175.69;4994797;28;104005;-61
2022/06/17 07:41:52;;;;;;;2.22;2.03;;;;;;;20.62;66.40;101177.63;4995767;28;102078;-62
2022/06/17 07:44:19;;;;;;;2.20;2.00;;;;;;;20.61;66.20;101164.16;4987556;28;104086;-62
2022/06/17 07:46:48;;;;;;;2.20;2.10;;;;;;;20.65;66.49;101167.88;4988171;28;102520;-57
2022/06/17 07:49:16;;;;;;;8.32;2.30;;;;;;;21.27;61.51;101164.56;4996502;28;103029;-57
2022/06/17 07:51:45;;;;;;;8.57;2.20;;;;;;;21.61;59.21;101157.25;4986443;28;102335;-55
2022/06/17 07:54:11;;;;;;;14.00;2.30;;;;;;;21.75;58.23;101163.38;4998259;28;104086;-55
2022/06/17 07:56:38;;;;;;;5.82;2.40;;;;;;;21.80;58.06;101157.63;4997728;28;102498;-55
2022/06/17 07:59:06;;;;;;;5.83;2.70;;;;;;;21.83;57.80;101153.38;4981781;28;102223;-54
2022/06/17 08:01:32;;;;;;;5.13;2.40;;;;;;;21.84;57.37;101177.94;4998825;28;102398;-56
2022/06/17 08:04:01;;;;;;;8.00;2.28;;;;;;;21.75;57.08;101162.56;4998185;28;103770;-55
2022/06/17 08:06:27;;;;;;;6.17;2.40;;;;;;;21.69;57.23;101159.16;4998179;28;102325;-52
2022/06/17 08:08:54;;;;;;;5.32;2.83;;;;;;;21.73;56.67;101162.88;4994204;28;102480;-50
2022/06/17 08:11:26;;;;;;;3.03;2.10;;;;;;;21.68;56.46;101153.97;4982252;28;102167;-51
2022/06/17 08:13:52;;;;;;;10.00;2.35;;;;;;;21.73;56.20;101162.06;4984220;28;104050;-57
2022/06/17 08:16:19;;;;;;;3.40;2.10;;;;;;;21.77;56.79;101160.25;4998102;28;102098;-51
2022/06/17 08:18:46;;;;;;;4.35;2.28;;;;;;;21.73;58.02;101154.56;4998107;28;102043;-52
2022/06/17 08:21:15;;;;;;;8.83;2.33;;;;;;;21.75;57.40;101151.47;4999041;28;102526;-52
2022/06/17 08:23:42;;;;;;;3.35;2.25;;;;;;;21.73;57.55;101165.66;4997993;28;103909;-51
2022/06/17 08:26:09;;;;;;;5.55;2.13;;;;;;;21.68;59.15;101157.53;4996705;28;102424;-51
2022/06/17 08:28:35;;;;;;;6.85;1.98;;;;;;;21.65;60.29;101152.66;4996234;28;102155;-52
2022/06/17 08:31:02;;;;;;;4.13;2.10;;;;;;;21.65;60.84;101152.66;4998302;28;102421;-50
2022/06/17 08:33:32;;;;;;;5.68;2.63;;;;;;;21.71;61.02;101143.03;4993993;28;103849;-53
2022/06/17 08:36:06;;;;;;;9.85;2.13;;;;;;;21.68;61.09;101140.13;4995410;28;102167;-54
2022/06/17 08:38:39;;;;;;;8.05;2.10;;;;;;;21.66;60.37;101148.75;4997119;28;102623;-55
2022/06/17 08:41:17;;;;;;;6.05;2.10;;;;;;;21.67;60.17;101161.44;4990196;28;102415;-54
2022/06/17 08:43:57;;;;;;;4.30;1.83;;;;;;;21.68;60.31;101157.53;4997160;28;103896;-53
2022/06/17 08:46:38;;;;;;;5.10;2.40;;;;;;;21.61;61.47;101168.34;4991098;28;103709;-50
2022/06/17 08:49:29;;;;;;;7.55;2.25;;;;;;;21.47;62.64;101165.00;4991173;28;102527;-50
2022/06/17 08:52:10;;;;;;;7.75;2.25;;;;;;;21.38;63.21;101169.75;4992705;28;102522;-50
2022/06/17 08:54:50;;;;;;;6.25;2.17;;;;;;;21.28;63.58;101171.75;4981860;28;104422;-50
2022/06/17 08:57:24;;;;;;;9.60;2.13;;;;;;;21.25;64.07;101171.59;4990627;28;102330;-50
2022/06/17 09:00:05;;;;;;;6.43;2.92;;;;;;;21.18;64.94;101174.06;4989252;28;102514;-51
2022/06/17 09:02:44;;;;;;;7.68;2.38;;;;;;;21.14;65.09;101178.66;4993329;28;102241;-50
2022/06/17 09:05:26;;;;;;;6.97;2.90;;;;;;;21.05;65.89;101178.66;4996329;28;104086;-50
2022/06/17 09:08:04;;;;;;;7.45;2.33;;;;;;;21.00;66.72;101196.25;4979752;28;102424;-50
2022/06/17 09:10:50;;;;;;;4.97;2.10;;;;;;;20.93;67.60;101209.00;4994187;28;102109;-51
2022/06/17 09:13:31;;;;;;;14.02;3.15;;;;;;;20.83;69.28;101238.59;4984521;28;102746;-50
2022/06/17 09:16:07;;;;;;;13.50;3.50;;;;;;;20.73;67.99;101272.13;4988203;28;103948;-50
2022/06/17 09:18:37;;;;;;;7.70;3.10;;;;;;;20.54;68.49;101246.78;4988548;28;102335;-50
2022/06/17 09:21:10;;;;;;;21.40;5.50;;;;;;;20.38;70.38;101238.16;4988319;28;102038;-50
2022/06/17 09:23:39;;;;;;;26.52;8.00;;;;;;;20.21;71.35;101241.69;4994999;28;102634;-50
2022/06/17 09:26:13;;;;;;;25.92;7.90;;;;;;;20.09;71.81;101236.00;4993790;28;103856;-51
2022/06/17 09:28:45;;;;;;;25.92;7.45;;;;;;;20.02;72.34;101228.19;4987320;28;101803;-50
2022/06/17 09:31:17;;;;;;;25.95;6.93;;;;;;;20.19;71.95;101235.66;4993774;28;102293;-50
2022/06/17 09:33:50;;;;;;;25.70;7.00;;;;;;;20.24;73.07;101220.91;4997651;28;102654;-50
2022/06/17 09:36:25;;;;;;;21.58;6.47;;;;;;;20.26;73.44;101219.41;4990977;28;103932;-51
2022/06/17 09:39:00;;;;;;;16.55;5.75;;;;;;;20.27;73.51;101223.84;4989896;28;102292;-50
2022/06/17 09:41:36;;;;;;;18.88;6.00;;;;;;;20.26;73.97;101230.47;4993253;28;102473;-50
2022/06/17 09:44:07;;;;;;;14.95;5.50;;;;;;;20.26;73.90;101235.19;4989325;28;102384;-50
2022/06/17 09:46:37;;;;;;;12.82;4.80;;;;;;;20.26;73.94;101226.91;4995154;28;103916;-50
2022/06/17 09:49:15;;;;;;;13.57;4.28;;;;;;;20.26;73.95;101219.41;4994000;28;102211;-50
2022/06/17 09:51:46;;;;;;;10.38;5.00;;;;;;;20.26;74.64;101219.41;4993073;28;102128;-50
2022/06/17 09:54:18;;;;;;;12.35;4.40;;;;;;;20.26;74.67;101208.38;4997720;28;102029;-50
2022/06/17 09:56:52;;;;;;;14.95;5.55;;;;;;;20.26;74.72;101205.59;4995919;28;103960;-50
2022/06/17 09:59:24;;;;;;;11.50;4.95;;;;;;;20.27;74.25;101204.47;4996225;28;102183;-51
2022/06/17 10:01:53;;;;;;;7.18;4.32;;;;;;;20.28;74.27;101208.88;4995241;28;102276;-50
2022/06/17 10:04:23;;;;;;;12.65;5.03;;;;;;;20.30;73.69;101208.53;4994134;28;102500;-50
2022/06/17 10:07:03;;;;;;;13.38;5.28;;;;;;;20.30;73.62;101206.59;4995195;28;103986;-50
2022/06/17 10:09:43;;;;;;;15.38;6.15;;;;;;;20.30;72.65;101203.84;4993630;28;102885;-50
2022/06/17 10:12:21;;;;;;;14.57;5.28;;;;;;;20.32;71.80;101198.78;4996041;28;102188;-50
2022/06/17 10:14:59;;;;;;;13.60;5.95;;;;;;;20.32;71.62;101178.63;4996996;28;102144;-50
2022/06/17 10:20:31;;;;;;;;;;;;;;;20.34;71.79;101176.31;4982791;28;102224;-51
2022/06/17 10:23:10;;;;;;;10.48;5.05;;;;;;;20.35;71.84;101172.44;4982759;28;106404;-50
2022/06/17 10:25:47;;;;;;;11.07;5.05;;;;;;;20.36;72.00;101171.31;4992276;28;103006;-50
2022/06/17 10:28:45;;;;;;;12.57;4.90;;;;;;;20.38;72.22;101166.28;4988536;28;103958;-50
2022/06/17 10:31:23;;;;;;;8.50;4.07;;;;;;;20.39;72.40;101152.09;4991115;28;105974;-50
2022/06/17 10:33:51;;;;;;;8.10;3.92;;;;;;;20.42;72.74;101149.84;4992273;28;102414;-50
2022/06/17 10:36:18;;;;;;;8.13;4.15;;;;;;;20.42;72.48;101144.31;4996487;28;102252;-50
2022/06/17 10:38:47;;;;;;;9.77;4.38;;;;;;;20.45;72.02;101132.56;4989420;28;103834;-50
2022/06/17 10:41:16;;;;;;;9.75;4.30;;;;;;;20.47;71.88;101122.00;4982419;28;102424;-51
2022/06/17 10:43:48;;;;;;;7.95;4.55;;;;;;;20.50;71.97;101132.44;4982470;28;102099;-50
2022/06/17 10:46:20;;;;;;;8.25;4.40;;;;;;;20.52;72.19;101124.63;4994531;28;102134;-52
2022/06/17 10:48:55;;;;;;;9.35;4.70;;;;;;;20.50;72.03;101118.63;4994114;28;103529;-50
2022/06/17 10:51:23;;;;;;;11.30;4.57;;;;;;;20.51;72.33;101114.72;4994301;28;103670;-50
2022/06/17 10:53:54;;;;;;;7.70;3.87;;;;;;;20.51;72.41;101109.19;4996952;28;102107;-50
2022/06/17 10:56:26;;;;;;;8.05;3.92;;;;;;;20.52;72.43;101110.81;5007763;28;102209;-50
2022/06/17 10:59:02;;;;;;;8.68;5.20;;;;;;;20.51;72.38;101104.47;4995851;28;104009;-51
2022/06/17 11:01:54;;;;;;;80.93;11.10;;;;;;;20.51;72.44;101103.66;4999063;28;102216;-51
2022/06/17 11:04:26;;;;;;;16.50;5.18;;;;;;;20.52;72.13;101096.97;4996567;28;102522;-50
2022/06/17 11:06:55;;;;;;;6.45;4.05;;;;;;;20.51;72.23;101087.06;4989763;28;102322;-50
2022/06/17 11:09:26;;;;;;;5.97;4.38;;;;;;;20.53;72.18;101084.78;5046875;22;103931;-50
2022/06/17 11:12:10;;;;;;;6.20;4.30;;;;;;;20.54;72.04;101089.19;5009882;22;102642;-52
2022/06/17 11:14:51;;;;;;;8.18;4.43;;;;;;;20.53;71.99;101084.78;5001972;28;102330;-52
2022/06/17 11:44:08;;;;;;;7.68;4.32;;;;;;;20.52;71.75;101116.34;5005308;22;102337;-51
2022/06/17 11:46:35;;;;;;;6.20;4.20;;;;;;;20.50;71.77;101110.34;5031480;27;102265;-54
2022/06/17 11:49:10;;;;;;;6.82;4.28;;;;;;;20.50;71.81;101113.09;5036669;28;104010;-52
2022/06/17 11:51:41;;;;;;;6.50;4.70;;;;;;;20.50;71.64;101118.63;5035605;28;102171;-52
2022/06/17 11:54:17;;;;;;;6.15;4.47;;;;;;;20.50;71.52;101126.91;5037837;28;102131;-52
2022/06/17 11:56:48;;;;;;;6.03;4.38;;;;;;;20.47;71.61;101135.84;5038473;28;102207;-52
2022/06/17 11:59:19;;;;;;;5.55;4.20;;;;;;;20.48;71.50;101141.03;5037889;28;104002;-52
2022/06/17 12:02:00;;;;;;;6.15;4.40;;;;;;;20.47;71.55;101150.47;5037071;27;102263;-51
2022/06/17 12:04:41;;;;;;;5.35;4.30;;;;;;;20.46;71.65;101167.41;5034915;28;102347;-52
2022/06/17 12:07:44;;;;;;;7.15;4.88;;;;;;;20.44;71.66;101180.72;5029905;28;107810;-51
2022/06/17 12:10:27;;;;;;;7.93;4.68;;;;;;;20.44;71.54;101202.84;5025145;28;103962;-51